createdAt,value
2018-05-03T00:00:49.762Z,91.74
2018-05-03T00:01:58.496Z,91.74
2018-05-03T00:03:07.062Z,92.03
2018-05-03T00:04:15.705Z,92.5
2018-05-03T00:05:24.349Z,91.94
2018-05-03T00:06:33.251Z,92.13
2018-05-03T00:07:41.901Z,91.74
2018-05-03T00:08:50.537Z,92.13
2018-05-03T00:09:59.187Z,92.69
2018-05-03T00:11:07.827Z,92.5
2018-05-03T00:12:16.469Z,92.6
2018-05-03T00:13:25.110Z,92.41
2018-05-03T00:14:33.766Z,92.6
2018-05-03T00:15:42.668Z,92.41
2018-05-03T00:16:51.315Z,92.6
2018-05-03T00:17:59.961Z,92.6
2018-05-03T00:19:08.881Z,92.69
2018-05-03T00:20:17.519Z,92.79
2018-05-03T00:21:26.429Z,93.37
2018-05-03T00:22:35.070Z,93.27
2018-05-03T00:23:43.979Z,93.46
2018-05-03T00:24:52.889Z,93.55
2018-05-03T00:26:01.530Z,92.79
2018-05-03T00:27:10.173Z,93.55
2018-05-03T00:28:18.809Z,93.55
2018-05-03T00:29:27.460Z,93.17
2018-05-03T00:30:36.100Z,93.55
2018-05-03T00:31:44.743Z,93.17
2018-05-03T00:32:53.380Z,93.65
2018-05-03T00:34:02.028Z,92.79
2018-05-03T00:35:10.939Z,92.89
2018-05-03T00:36:19.592Z,92.89
2018-05-03T00:37:28.231Z,92.89
2018-05-03T00:38:36.883Z,93.55
2018-05-03T00:39:45.518Z,93.93
2018-05-03T00:40:54.164Z,93.84
2018-05-03T00:42:02.811Z,93.37
2018-05-03T00:43:11.448Z,93.27
2018-05-03T00:44:20.090Z,93.51
2018-05-03T00:45:28.732Z,93.32
2018-05-03T00:46:37.387Z,94.17
2018-05-03T00:47:46.025Z,94.17
2018-05-03T00:48:54.937Z,94.46
2018-05-03T00:50:03.857Z,93.7
2018-05-03T00:51:12.502Z,94.46
2018-05-03T00:52:21.137Z,94.17
2018-05-03T00:53:30.048Z,94.08
2018-05-03T00:54:38.692Z,94.27
2018-05-03T00:55:47.338Z,93.98
2018-05-03T00:56:56.243Z,94.65
2018-05-03T00:58:05.143Z,93.98
2018-05-03T00:59:14.058Z,93.74
2018-05-03T01:00:22.952Z,94.22
2018-05-03T01:01:31.602Z,94.22
2018-05-03T01:02:40.242Z,94.13
2018-05-03T01:03:48.889Z,94.46
2018-05-03T01:04:57.539Z,94.51
2018-05-03T01:06:06.178Z,94.17
2018-05-03T01:07:14.819Z,94.37
2018-05-03T01:08:23.462Z,94.17
2018-05-03T01:09:32.108Z,93.51
2018-05-03T01:10:40.750Z,94.17
2018-05-03T01:11:49.397Z,94.08
2018-05-03T01:12:58.301Z,94.08
2018-05-03T01:14:06.952Z,94.46
2018-05-03T01:15:15.852Z,94.46
2018-05-03T01:16:24.754Z,94.46
2018-05-03T01:17:33.393Z,94.27
2018-05-03T01:18:42.033Z,94.08
2018-05-03T01:19:50.680Z,94.46
2018-05-03T01:20:59.327Z,94.46
2018-05-03T01:22:07.964Z,94.56
2018-05-03T01:23:16.603Z,94.65
2018-05-03T01:24:25.633Z,94.84
2018-05-03T01:25:34.155Z,94.56
2018-05-03T01:26:42.796Z,94.65
2018-05-03T01:27:51.436Z,94.84
2018-05-03T01:29:00.087Z,94.74
2018-05-03T01:30:08.990Z,94.84
2018-05-03T01:31:17.634Z,94.74
2018-05-03T01:32:26.274Z,94.65
2018-05-03T01:33:34.918Z,94.74
2018-05-03T01:34:43.561Z,95.79
2018-05-03T01:35:52.205Z,96.36
2018-05-03T01:37:00.848Z,96.75
2018-05-03T01:38:09.490Z,97.13
2018-05-03T01:39:18.132Z,97.03
2018-05-03T01:40:26.773Z,97.51
2018-05-03T01:41:35.693Z,97.22
2018-05-03T01:42:44.595Z,97.22
2018-05-03T01:43:53.236Z,97.13
2018-05-03T01:45:01.883Z,96.84
2018-05-03T01:46:10.798Z,97.03
2018-05-03T01:47:19.435Z,96.94
2018-05-03T01:48:28.079Z,96.94
2018-05-03T01:49:36.717Z,97.22
2018-05-03T01:50:45.365Z,97.79
2018-05-03T01:51:54.004Z,97.79
2018-05-03T01:53:02.644Z,98.55
2018-05-03T01:54:11.285Z,97.7
2018-05-03T01:55:19.925Z,97.79
2018-05-03T01:56:28.837Z,98.18
2018-05-03T01:57:37.744Z,98.18
2018-05-03T01:58:46.385Z,97.31
2018-05-03T01:59:55.028Z,97.79
2018-05-03T02:01:03.951Z,98.27
2018-05-03T02:02:12.591Z,97.79
2018-05-03T02:03:21.240Z,98.46
2018-05-03T02:04:30.140Z,98.74
2018-05-03T02:05:38.791Z,98.65
2018-05-03T02:06:47.431Z,99.13
2018-05-03T02:07:56.078Z,98.65
2018-05-03T02:09:04.708Z,99.93
2018-05-03T02:10:13.355Z,99.22
2018-05-03T02:11:21.999Z,99.51
2018-05-03T02:12:30.643Z,98.94
2018-05-03T02:13:39.286Z,99.98
2018-05-03T02:14:48.181Z,99.84
2018-05-03T02:15:57.100Z,99.41
2018-05-03T02:17:05.731Z,99.13
2018-05-03T02:18:14.383Z,99.99
2018-05-03T02:19:23.015Z,99.99
2018-05-03T02:20:31.665Z,99.84
2018-05-03T02:21:40.562Z,99.65
2018-05-03T02:22:49.215Z,99.93
2018-05-03T02:23:57.847Z,99.99
2018-05-03T02:25:06.491Z,99.99
2018-05-03T02:26:15.393Z,99.99
2018-05-03T02:27:24.046Z,99.99
2018-05-03T02:28:32.953Z,99.99
2018-05-03T02:29:41.588Z,99.99
2018-05-03T02:30:50.241Z,99.99
2018-05-03T02:31:59.421Z,99.99
2018-05-03T02:33:08.078Z,99.99
2018-05-03T02:34:16.978Z,99.99
2018-05-03T02:35:25.627Z,99.99
2018-05-03T02:36:34.263Z,99.99
2018-05-03T02:37:43.182Z,99.99
2018-05-03T02:38:52.096Z,99.99
2018-05-03T02:40:00.737Z,99.99
2018-05-03T02:41:09.369Z,99.99
2018-05-03T02:42:18.594Z,99.99
2018-05-03T02:43:27.764Z,99.99
2018-05-03T02:44:36.691Z,99.99
2018-05-03T02:45:45.318Z,99.99
2018-05-03T02:46:53.965Z,99.99
2018-05-03T02:48:02.890Z,99.99
2018-05-03T02:49:12.072Z,99.99
2018-05-03T02:50:20.717Z,99.98
2018-05-03T02:51:29.621Z,99.99
2018-05-03T02:52:38.529Z,99.99
2018-05-03T02:53:47.441Z,99.99
2018-05-03T02:54:56.094Z,99.99
2018-05-03T02:56:04.989Z,99.98
2018-05-03T02:57:13.639Z,99.99
2018-05-03T02:58:22.280Z,99.99
2018-05-03T02:59:30.931Z,99.99
2018-05-03T03:00:39.836Z,99.99
2018-05-03T03:01:48.488Z,99.99
2018-05-03T03:02:57.412Z,99.99
2018-05-03T03:04:06.067Z,99.99
2018-05-03T03:05:14.984Z,99.99
2018-05-03T03:06:23.891Z,99.99
2018-05-03T03:07:32.803Z,99.99
2018-05-03T03:08:41.447Z,99.99
2018-05-03T03:09:50.101Z,99.79
2018-05-03T03:10:58.741Z,99.99
2018-05-03T03:12:07.388Z,99.98
2018-05-03T03:13:16.285Z,99.99
2018-05-03T03:14:24.944Z,99.89
2018-05-03T03:15:33.580Z,99.99
2018-05-03T03:16:42.495Z,99.79
2018-05-03T03:17:51.388Z,99.89
2018-05-03T03:19:00.306Z,99.79
2018-05-03T03:20:09.225Z,99.99
2018-05-03T03:21:17.868Z,99.99
2018-05-03T03:22:26.513Z,99.99
2018-05-03T03:23:35.145Z,99.99
2018-05-03T03:24:43.799Z,99.69
2018-05-03T03:25:52.438Z,99.99
2018-05-03T03:27:01.081Z,99.84
2018-05-03T03:28:09.716Z,99.75
2018-05-03T03:29:18.364Z,99.99
2018-05-03T03:30:27.002Z,99.84
2018-05-03T03:31:35.918Z,99.99
2018-05-03T03:32:44.816Z,99.99
2018-05-03T03:33:53.467Z,99.99
2018-05-03T03:35:02.373Z,99.99
2018-05-03T03:36:11.287Z,99.99
2018-05-03T03:37:19.921Z,99.99
2018-05-03T03:38:28.565Z,99.99
2018-05-03T03:39:37.205Z,99.99
2018-05-03T03:40:46.124Z,99.99
2018-05-03T03:41:55.026Z,99.99
2018-05-03T03:43:03.665Z,99.99
2018-05-03T03:44:12.301Z,99.99
2018-05-03T03:45:20.942Z,99.99
2018-05-03T03:46:29.601Z,99.99
2018-05-03T03:47:38.239Z,99.99
2018-05-03T03:48:47.151Z,99.99
2018-05-03T03:49:55.784Z,99.99
2018-05-03T03:51:04.435Z,99.99
2018-05-03T03:52:13.072Z,99.99
2018-05-03T03:53:21.774Z,99.99
2018-05-03T03:54:30.360Z,99.99
2018-05-03T03:55:39.021Z,99.99
2018-05-03T03:56:47.932Z,99.99
2018-05-03T03:57:56.840Z,99.99
2018-05-03T03:59:05.574Z,99.99
2018-05-03T04:00:14.122Z,99.99
2018-05-03T04:01:22.765Z,99.99
2018-05-03T04:02:31.408Z,99.99
2018-05-03T04:03:40.052Z,99.99
2018-05-03T04:04:48.689Z,99.99
2018-05-03T04:05:57.334Z,99.99
2018-05-03T04:07:06.237Z,99.99
2018-05-03T04:08:14.884Z,99.99
2018-05-03T04:09:23.522Z,99.99
2018-05-03T04:10:32.163Z,99.99
2018-05-03T04:11:40.807Z,99.99
2018-05-03T04:12:49.456Z,99.99
2018-05-03T04:13:58.094Z,99.99
2018-05-03T04:15:06.999Z,99.99
2018-05-03T04:16:16.175Z,99.99
2018-05-03T04:17:25.083Z,99.99
2018-05-03T04:18:33.723Z,99.99
2018-05-03T04:19:42.367Z,99.99
2018-05-03T04:20:51.006Z,99.99
2018-05-03T04:21:59.648Z,99.99
2018-05-03T04:23:08.293Z,99.99
2018-05-03T04:24:16.937Z,99.99
2018-05-03T04:25:25.849Z,99.99
2018-05-03T04:26:34.492Z,99.99
2018-05-03T04:27:43.134Z,99.99
2018-05-03T04:28:51.780Z,99.99
2018-05-03T04:30:00.421Z,99.99
2018-05-03T04:31:09.334Z,99.99
2018-05-03T04:32:17.981Z,99.99
2018-05-03T04:33:26.623Z,99.99
2018-05-03T04:34:35.568Z,99.99
2018-05-03T04:35:44.168Z,99.99
2018-05-03T04:36:52.812Z,99.99
2018-05-03T04:38:01.456Z,99.99
2018-05-03T04:39:10.101Z,99.99
2018-05-03T04:40:18.743Z,99.99
2018-05-03T04:41:27.382Z,99.99
2018-05-03T04:42:36.040Z,99.99
2018-05-03T04:43:44.682Z,99.99
2018-05-03T04:44:53.326Z,99.99
2018-05-03T04:46:01.965Z,99.99
2018-05-03T04:47:10.611Z,99.99
2018-05-03T04:48:19.515Z,99.99
2018-05-03T04:49:28.164Z,99.99
2018-05-03T04:50:37.067Z,99.99
2018-05-03T04:51:45.715Z,99.99
2018-05-03T04:52:54.355Z,99.99
2018-05-03T04:54:03.054Z,99.99
2018-05-03T04:55:11.643Z,99.99
2018-05-03T04:56:20.288Z,99.99
2018-05-03T04:57:28.926Z,99.99
2018-05-03T04:58:37.572Z,99.99
2018-05-03T04:59:46.206Z,99.99
2018-05-03T05:00:54.847Z,99.99
2018-05-03T05:02:03.488Z,99.99
2018-05-03T05:03:12.135Z,99.99
2018-05-03T05:04:20.773Z,99.99
2018-05-03T05:05:29.419Z,99.99
2018-05-03T05:06:38.061Z,99.99
2018-05-03T05:07:46.715Z,99.99
2018-05-03T05:08:55.350Z,99.99
2018-05-03T05:10:03.997Z,99.99
2018-05-03T05:11:12.639Z,99.99
2018-05-03T05:12:21.285Z,99.99
2018-05-03T05:13:29.926Z,99.99
2018-05-03T05:14:38.566Z,99.99
2018-05-03T05:15:47.212Z,99.99
2018-05-03T05:16:55.849Z,99.99
2018-05-03T05:18:04.495Z,99.99
2018-05-03T05:19:13.135Z,99.99
2018-05-03T05:20:21.780Z,99.99
2018-05-03T05:21:30.414Z,99.99
2018-05-03T05:22:41.619Z,99.99
2018-05-03T05:23:50.261Z,99.99
2018-05-03T05:24:58.900Z,99.99
2018-05-03T05:26:07.540Z,99.99
2018-05-03T05:27:16.185Z,99.99
2018-05-03T05:28:24.826Z,99.99
2018-05-03T05:29:33.471Z,99.99
2018-05-03T05:30:42.165Z,99.99
2018-05-03T05:31:50.750Z,99.99
2018-05-03T05:32:59.398Z,99.99
2018-05-03T05:34:08.043Z,99.99
2018-05-03T05:35:16.687Z,99.99
2018-05-03T05:36:25.588Z,99.99
2018-05-03T05:37:34.228Z,99.99
2018-05-03T05:38:42.922Z,99.99
2018-05-03T05:39:51.518Z,99.99
2018-05-03T05:41:00.157Z,99.99
2018-05-03T05:42:09.064Z,99.99
2018-05-03T05:43:17.705Z,99.99
2018-05-03T05:44:26.450Z,99.99
2018-05-03T05:45:34.989Z,99.79
2018-05-03T05:46:43.636Z,99.69
2018-05-03T05:47:52.276Z,99.32
2018-05-03T05:49:01.196Z,99.65
2018-05-03T05:50:09.833Z,99.69
2018-05-03T05:51:18.558Z,98.99
2018-05-03T05:52:27.116Z,98.99
2018-05-03T05:53:35.757Z,99.27
2018-05-03T05:54:44.679Z,99.18
2018-05-03T05:55:53.318Z,98.51
2018-05-03T05:57:01.966Z,98.32
2018-05-03T05:58:10.597Z,98.32
2018-05-03T05:59:19.252Z,98.7
2018-05-03T06:00:27.888Z,98.89
2018-05-03T06:01:36.537Z,98.03
2018-05-03T06:02:45.172Z,97.65
2018-05-03T06:03:53.820Z,97.46
2018-05-03T06:05:02.461Z,96.89
2018-05-03T06:06:11.107Z,96.98
2018-05-03T06:07:19.746Z,97.27
2018-05-03T06:08:28.656Z,97.56
2018-05-03T06:09:37.308Z,97.8
2018-05-03T06:10:45.950Z,97.51
2018-05-03T06:11:54.604Z,97.84
2018-05-03T06:13:03.498Z,97.51
2018-05-03T06:14:12.144Z,96.17
2018-05-03T06:15:20.784Z,95.98
2018-05-03T06:16:29.435Z,95.94
2018-05-03T06:17:38.067Z,96.17
2018-05-03T06:18:46.715Z,96.27
2018-05-03T06:19:55.620Z,95.79
2018-05-03T06:21:04.272Z,95.61
2018-05-03T06:22:13.177Z,96.27
2018-05-03T06:23:21.823Z,96.75
2018-05-03T06:24:30.464Z,95.98
2018-05-03T06:25:39.116Z,96.17
2018-05-03T06:26:48.027Z,96.94
2018-05-03T06:27:56.937Z,96.84
2018-05-03T06:29:05.578Z,96.17
2018-05-03T06:30:14.482Z,96.75
2018-05-03T06:31:23.134Z,96.46
2018-05-03T06:32:31.771Z,97.17
2018-05-03T06:33:40.428Z,96.98
2018-05-03T06:34:49.331Z,96.89
2018-05-03T06:35:57.970Z,96.8
2018-05-03T06:37:06.614Z,97.17
2018-05-03T06:38:15.259Z,97.08
2018-05-03T06:39:24.158Z,96.51
2018-05-03T06:40:32.810Z,95.94
2018-05-03T06:41:41.452Z,96.22
2018-05-03T06:42:50.098Z,95.46
2018-05-03T06:43:58.734Z,93.65
2018-05-03T06:45:07.400Z,94.51
2018-05-03T06:46:16.058Z,93.65
2018-05-03T06:47:24.973Z,93.65
2018-05-03T06:48:33.619Z,93.27
2018-05-03T06:49:42.259Z,93.08
2018-05-03T06:50:50.905Z,92.5
2018-05-03T06:51:59.548Z,93.08
2018-05-03T06:53:08.724Z,93.17
2018-05-03T06:54:17.630Z,92.5
2018-05-03T06:55:26.274Z,91.55
2018-05-03T06:56:34.924Z,91.46
2018-05-03T06:57:43.567Z,91.36
2018-05-03T06:58:52.200Z,92.41
2018-05-03T07:00:00.852Z,93.02
2018-05-03T07:01:09.494Z,90.73
2018-05-03T07:02:18.146Z,90.36
2018-05-03T07:03:27.061Z,90.36
2018-05-03T07:04:35.702Z,89.4
2018-05-03T07:05:44.610Z,88.4
2018-05-03T07:06:53.254Z,88.16
2018-05-03T07:08:01.905Z,88.54
2018-05-03T07:09:10.548Z,87.02
2018-05-03T07:10:19.197Z,88.45
2018-05-03T07:11:28.137Z,89.59
2018-05-03T07:12:36.793Z,88.54
2018-05-03T07:13:45.497Z,88.73
2018-05-03T07:14:54.387Z,87.68
2018-05-03T07:16:02.971Z,86.63
2018-05-03T07:17:11.625Z,87.97
2018-05-03T07:18:20.530Z,87.78
2018-05-03T07:19:29.179Z,87.87
2018-05-03T07:20:37.826Z,87.59
2018-05-03T07:21:46.473Z,88.54
2018-05-03T07:22:55.206Z,88.49
2018-05-03T07:24:03.984Z,86.77
2018-05-03T07:25:12.966Z,87.73
2018-05-03T07:26:21.662Z,86.96
2018-05-03T07:27:30.311Z,87.44
2018-05-03T07:28:38.955Z,88.11
2018-05-03T07:29:48.097Z,87.15
2018-05-03T07:30:56.740Z,86.77
2018-05-03T07:32:05.426Z,87.82
2018-05-03T07:33:14.072Z,85.44
2018-05-03T07:34:22.726Z,85.44
2018-05-03T07:35:31.366Z,86.1
2018-05-03T07:36:40.009Z,85.53
2018-05-03T07:37:48.649Z,86.39
2018-05-03T07:38:57.299Z,86.68
2018-05-03T07:40:05.945Z,86.77
2018-05-03T07:41:14.586Z,86.96
2018-05-03T07:42:23.233Z,87.25
2018-05-03T07:43:31.875Z,86.96
2018-05-03T07:44:40.532Z,86.96
2018-05-03T07:45:49.445Z,87.15
2018-05-03T07:46:58.090Z,87.92
2018-05-03T07:48:06.730Z,86.96
2018-05-03T07:49:15.376Z,86.87
2018-05-03T07:50:24.022Z,85.63
2018-05-03T07:51:32.665Z,86.3
2018-05-03T07:52:41.566Z,86.3
2018-05-03T07:53:50.217Z,86.77
2018-05-03T07:54:58.860Z,87.15
2018-05-03T07:56:07.771Z,85.67
2018-05-03T07:57:16.406Z,85.53
2018-05-03T07:58:25.056Z,85.77
2018-05-03T07:59:33.705Z,84.91
2018-05-03T08:00:42.357Z,84.33
2018-05-03T08:01:51.005Z,84.86
2018-05-03T08:02:59.643Z,85.25
2018-05-03T08:04:08.558Z,85.25
2018-05-03T08:05:17.200Z,86.01
2018-05-03T08:06:25.854Z,84.1
2018-05-03T08:07:34.494Z,83.14
2018-05-03T08:08:43.153Z,83.14
2018-05-03T08:09:51.792Z,83.72
2018-05-03T08:11:00.453Z,85.15
2018-05-03T08:12:09.089Z,85.05
2018-05-03T08:13:17.736Z,85.44
2018-05-03T08:14:26.377Z,86.2
2018-05-03T08:15:35.031Z,86.68
2018-05-03T08:16:43.672Z,86.2
2018-05-03T08:17:52.313Z,85.72
2018-05-03T08:19:00.959Z,85.91
2018-05-03T08:20:09.599Z,84.96
2018-05-03T08:21:18.515Z,85.48
2018-05-03T08:22:27.211Z,85.19
2018-05-03T08:23:35.803Z,85.05
2018-05-03T08:24:44.437Z,85.53
2018-05-03T08:25:53.091Z,85.77
2018-05-03T08:27:01.729Z,85
2018-05-03T08:28:10.384Z,85.29
2018-05-03T08:29:19.021Z,84.72
2018-05-03T08:30:27.675Z,85.1
2018-05-03T08:31:36.318Z,86.05
2018-05-03T08:32:44.968Z,84.33
2018-05-03T08:33:53.602Z,83.95
2018-05-03T08:35:02.251Z,83.28
2018-05-03T08:36:11.175Z,84.14
2018-05-03T08:37:20.085Z,83.57
2018-05-03T08:38:28.733Z,84.14
2018-05-03T08:39:37.367Z,83.18
2018-05-03T08:40:46.020Z,83.86
2018-05-03T08:41:54.920Z,84.23
2018-05-03T08:43:03.568Z,84.33
2018-05-03T08:44:12.203Z,83.28
2018-05-03T08:45:20.854Z,83.38
2018-05-03T08:46:29.491Z,82.61
2018-05-03T08:47:38.146Z,82.14
2018-05-03T08:48:46.782Z,81.85
2018-05-03T08:49:55.429Z,82.32
2018-05-03T08:51:04.083Z,82.42
2018-05-03T08:52:12.719Z,83.09
2018-05-03T08:53:21.366Z,82.14
2018-05-03T08:54:30.017Z,82.42
2018-05-03T08:55:39.049Z,81.56
2018-05-03T08:56:47.679Z,81.22
2018-05-03T08:57:56.313Z,82.08
2018-05-03T08:59:04.960Z,81.51
2018-05-03T09:00:13.598Z,80.93
2018-05-03T09:01:22.592Z,79.22
2018-05-03T09:02:31.191Z,79.88
2018-05-03T09:03:39.843Z,79.6
2018-05-03T09:04:48.485Z,79.35
2018-05-03T09:05:57.426Z,78.68
2018-05-03T09:07:06.064Z,78.49
2018-05-03T09:08:14.717Z,77.53
2018-05-03T09:09:23.633Z,78.39
2018-05-03T09:10:32.280Z,76.29
2018-05-03T09:11:40.923Z,74.57
2018-05-03T09:12:49.827Z,74.76
2018-05-03T09:13:58.474Z,75.34
2018-05-03T09:15:07.116Z,76.48
2018-05-03T09:16:15.772Z,75.43
2018-05-03T09:17:24.415Z,75.62
2018-05-03T09:18:33.068Z,75.24
2018-05-03T09:19:41.704Z,76.39
2018-05-03T09:20:50.626Z,75.24
2018-05-03T09:21:59.268Z,74.66
2018-05-03T09:23:08.181Z,73.23
2018-05-03T09:24:16.823Z,72.56
2018-05-03T09:25:25.478Z,74.38
2018-05-03T09:26:34.118Z,72.37
2018-05-03T09:27:42.786Z,72.75
2018-05-03T09:28:51.425Z,74.85
2018-05-03T09:30:00.080Z,75.71
2018-05-03T09:31:08.998Z,76.77
2018-05-03T09:32:17.905Z,75.62
2018-05-03T09:33:26.554Z,74.76
2018-05-03T09:34:35.454Z,73.96
2018-05-03T09:35:44.104Z,72.62
2018-05-03T09:36:52.749Z,71.32
2018-05-03T09:38:01.404Z,71.32
2018-05-03T09:39:10.092Z,70.84
2018-05-03T09:40:19.071Z,69.7
2018-05-03T09:41:27.712Z,70.46
2018-05-03T09:42:36.367Z,71.7
2018-05-03T09:43:45.006Z,71.8
2018-05-03T09:44:54.208Z,69.5
2018-05-03T09:46:02.905Z,68.26
2018-05-03T09:47:11.567Z,68.93
2018-05-03T09:48:20.211Z,69.5
2018-05-03T09:49:28.852Z,65.77
2018-05-03T09:50:37.497Z,63.48
2018-05-03T09:51:46.175Z,65.58
2018-05-03T09:52:54.824Z,63.99
2018-05-03T09:54:03.471Z,62.08
2018-05-03T09:55:12.115Z,61.22
2018-05-03T09:56:21.234Z,61.22
2018-05-03T09:57:29.943Z,61.6
2018-05-03T09:58:38.856Z,62.94
2018-05-03T09:59:47.577Z,64.75
2018-05-03T10:00:56.439Z,64.37
2018-05-03T10:02:05.621Z,65.04
2018-05-03T10:03:14.269Z,67.34
2018-05-03T10:04:22.920Z,66.19
2018-05-03T10:05:31.845Z,66.03
2018-05-03T10:06:40.495Z,65.65
2018-05-03T10:07:49.141Z,65.45
2018-05-03T10:08:57.790Z,65.74
2018-05-03T10:10:06.444Z,65.65
2018-05-03T10:11:15.088Z,65.08
2018-05-03T10:12:24.000Z,64.31
2018-05-03T10:13:32.646Z,66.22
2018-05-03T10:14:41.374Z,62.87
2018-05-03T10:15:49.947Z,62.49
2018-05-03T10:16:58.591Z,63.73
2018-05-03T10:18:07.236Z,62.4
2018-05-03T10:19:15.886Z,62.3
2018-05-03T10:20:24.801Z,64.15
2018-05-03T10:21:33.450Z,61.47
2018-05-03T10:22:42.095Z,61.25
2018-05-03T10:23:50.746Z,62.87
2018-05-03T10:24:59.392Z,62.43
2018-05-03T10:26:08.043Z,62.11
2018-05-03T10:27:16.684Z,65.08
2018-05-03T10:28:25.328Z,63.83
2018-05-03T10:29:34.147Z,64.12
2018-05-03T10:30:43.193Z,61.57
2018-05-03T10:31:52.222Z,61.57
2018-05-03T10:33:01.156Z,61.94
2018-05-03T10:34:09.808Z,60.51
2018-05-03T10:35:18.455Z,59.94
2018-05-03T10:36:27.101Z,61.47
2018-05-03T10:37:35.744Z,61.57
2018-05-03T10:38:44.474Z,61.08
2018-05-03T10:39:53.117Z,60.7
2018-05-03T10:41:02.299Z,61.02
2018-05-03T10:42:11.024Z,60.73
2018-05-03T10:43:19.956Z,60.25
2018-05-03T10:44:28.603Z,59.68
2018-05-03T10:45:37.253Z,60.64
2018-05-03T10:46:46.160Z,60.06
2018-05-03T10:47:54.803Z,60.44
2018-05-03T10:49:03.496Z,61.6
2018-05-03T10:50:12.116Z,60.83
2018-05-03T10:51:21.021Z,60.54
2018-05-03T10:52:29.682Z,61.31
2018-05-03T10:53:38.332Z,61.31
2018-05-03T10:54:47.036Z,62.26
2018-05-03T10:55:55.674Z,62.65
2018-05-03T10:57:04.605Z,61.11
2018-05-03T10:58:13.249Z,60.83
2018-05-03T10:59:22.167Z,59.45
2018-05-03T11:00:30.807Z,59.3
2018-05-03T11:01:39.455Z,60.7
2018-05-03T11:02:48.109Z,61.28
2018-05-03T11:03:56.758Z,60.16
2018-05-03T11:05:05.410Z,60.73
2018-05-03T11:06:14.051Z,61.88
2018-05-03T11:07:22.700Z,61.18
2018-05-03T11:08:31.347Z,61.11
2018-05-03T11:09:40.006Z,61.57
2018-05-03T11:10:48.643Z,62.81
2018-05-03T11:11:57.594Z,62.43
2018-05-03T11:13:06.238Z,63
2018-05-03T11:14:14.893Z,60.32
2018-05-03T11:15:23.915Z,60.13
2018-05-03T11:16:32.828Z,59.75
2018-05-03T11:17:41.473Z,62.04
2018-05-03T11:18:50.128Z,61.37
2018-05-03T11:19:58.772Z,63.1
2018-05-03T11:21:07.424Z,61.6
2018-05-03T11:22:16.073Z,60.73
2018-05-03T11:23:24.717Z,59.11
2018-05-03T11:24:33.371Z,59.68
2018-05-03T11:25:42.016Z,59.77
2018-05-03T11:26:50.669Z,60.64
2018-05-03T11:27:59.571Z,60.83
2018-05-03T11:29:08.227Z,59.2
2018-05-03T11:30:16.872Z,59.87
2018-05-03T11:31:25.564Z,60.35
2018-05-03T11:32:34.163Z,60.35
2018-05-03T11:33:42.821Z,61.31
2018-05-03T11:34:51.467Z,61.43
2018-05-03T11:36:00.117Z,57.98
2018-05-03T11:37:08.754Z,57.31
2018-05-03T11:38:17.406Z,59.11
2018-05-03T11:39:26.322Z,59.2
2018-05-03T11:40:34.973Z,60.73
2018-05-03T11:41:43.624Z,60.35
2018-05-03T11:42:52.261Z,58.84
2018-05-03T11:44:00.915Z,58.46
2018-05-03T11:45:09.566Z,58.53
2018-05-03T11:46:18.483Z,58.81
2018-05-03T11:47:27.125Z,58.84
2018-05-03T11:48:35.773Z,60.73
2018-05-03T11:49:44.421Z,59.87
2018-05-03T11:50:53.336Z,60.73
2018-05-03T11:52:01.980Z,61.11
2018-05-03T11:53:10.929Z,62.65
2018-05-03T11:54:19.913Z,63.6
2018-05-03T11:55:28.490Z,61.5
2018-05-03T11:56:37.136Z,61.21
2018-05-03T11:57:45.783Z,61.37
2018-05-03T11:58:54.429Z,61.85
2018-05-03T12:00:03.076Z,62.33
2018-05-03T12:01:11.730Z,62.52
2018-05-03T12:02:20.458Z,62.07
2018-05-03T12:03:29.032Z,61.4
2018-05-03T12:04:37.940Z,62.55
2018-05-03T12:05:46.863Z,62.55
2018-05-03T12:06:55.782Z,60.25
2018-05-03T12:08:04.702Z,59.33
2018-05-03T12:09:13.344Z,58.75
2018-05-03T12:10:21.996Z,58.75
2018-05-03T12:11:30.642Z,57.5
2018-05-03T12:12:39.555Z,57.12
2018-05-03T12:13:48.466Z,57.5
2018-05-03T12:14:57.115Z,57.5
2018-05-03T12:16:05.762Z,56.93
2018-05-03T12:17:14.411Z,56.35
2018-05-03T12:18:23.331Z,57.6
2018-05-03T12:19:31.969Z,57.7
2018-05-03T12:20:40.617Z,58.08
2018-05-03T12:21:49.269Z,59.33
2018-05-03T12:22:57.930Z,56.74
2018-05-03T12:24:06.573Z,56.86
2018-05-03T12:25:15.219Z,55.04
2018-05-03T12:26:23.867Z,54.27
2018-05-03T12:27:32.520Z,55.23
2018-05-03T12:28:41.162Z,55.33
2018-05-03T12:29:49.817Z,54.56
2018-05-03T12:30:58.458Z,55.13
2018-05-03T12:32:07.114Z,56.19
2018-05-03T12:33:15.754Z,56.86
2018-05-03T12:34:24.402Z,56.48
2018-05-03T12:35:33.051Z,56.48
2018-05-03T12:36:41.699Z,56.48
2018-05-03T12:37:50.348Z,53.99
2018-05-03T12:38:58.997Z,53.7
2018-05-03T12:40:07.909Z,54.75
2018-05-03T12:41:16.552Z,55.71
2018-05-03T12:42:25.207Z,56.96
2018-05-03T12:43:33.864Z,55.52
2018-05-03T12:44:42.775Z,57.43
2018-05-03T12:45:51.688Z,55.71
2018-05-03T12:47:00.333Z,55.71
2018-05-03T12:48:09.253Z,54.97
2018-05-03T12:49:17.901Z,55.74
2018-05-03T12:50:26.563Z,55.83
2018-05-03T12:51:35.472Z,53.24
2018-05-03T12:52:44.119Z,54.11
2018-05-03T12:53:52.763Z,54.21
2018-05-03T12:55:01.414Z,52.48
2018-05-03T12:56:10.074Z,54.27
2018-05-03T12:57:18.718Z,53.7
2018-05-03T12:58:27.631Z,53.5
2018-05-03T12:59:36.275Z,54.75
2018-05-03T13:00:45.245Z,56.96
2018-05-03T13:01:54.131Z,53.22
2018-05-03T13:03:02.777Z,52.16
2018-05-03T13:04:11.421Z,52.55
2018-05-03T13:05:20.336Z,53.7
2018-05-03T13:06:28.983Z,53.89
2018-05-03T13:07:37.633Z,55.33
2018-05-03T13:08:46.279Z,55.93
2018-05-03T13:09:54.929Z,53.34
2018-05-03T13:11:03.576Z,52.09
2018-05-03T13:12:12.232Z,52.67
2018-05-03T13:13:21.146Z,54.3
2018-05-03T13:14:30.058Z,52
2018-05-03T13:15:38.704Z,50.39
2018-05-03T13:16:47.354Z,51.35
2018-05-03T13:17:56.006Z,51.93
2018-05-03T13:19:04.651Z,51.64
2018-05-03T13:20:13.351Z,51.93
2018-05-03T13:21:21.948Z,52.79
2018-05-03T13:22:30.601Z,51.93
2018-05-03T13:23:39.246Z,52.22
2018-05-03T13:24:47.899Z,54.23
2018-05-03T13:25:56.547Z,54.33
2018-05-03T13:27:05.462Z,53.85
2018-05-03T13:28:14.109Z,54.01
2018-05-03T13:29:23.024Z,55.07
2018-05-03T13:30:31.668Z,55.55
2018-05-03T13:31:40.320Z,55.55
2018-05-03T13:32:48.973Z,56.67
2018-05-03T13:33:57.632Z,56.38
2018-05-03T13:35:06.272Z,56.57
2018-05-03T13:36:14.916Z,55.71
2018-05-03T13:37:23.567Z,57.43
2018-05-03T13:38:32.216Z,59.55
2018-05-03T13:39:40.862Z,57.63
2018-05-03T13:40:49.506Z,54.75
2018-05-03T13:41:58.165Z,53.41
2018-05-03T13:43:06.849Z,53.5
2018-05-03T13:44:15.852Z,52.83
2018-05-03T13:45:24.494Z,52.64
2018-05-03T13:46:33.145Z,52.64
2018-05-03T13:47:41.882Z,52.55
2018-05-03T13:48:50.505Z,52.57
2018-05-03T13:49:59.102Z,53.72
2018-05-03T13:51:07.740Z,55.26
2018-05-03T13:52:16.663Z,57.28
2018-05-03T13:53:25.396Z,55.35
2018-05-03T13:54:33.968Z,52.95
2018-05-03T13:55:42.608Z,51.81
2018-05-03T13:56:51.266Z,51.9
2018-05-03T13:58:00.168Z,52.28
2018-05-03T13:59:08.826Z,51.51
2018-05-03T14:00:17.468Z,53.05
2018-05-03T14:01:26.118Z,53.72
2018-05-03T14:02:34.767Z,50.08
2018-05-03T14:03:43.693Z,51.71
2018-05-03T14:04:52.334Z,50.84
2018-05-03T14:06:00.975Z,49.98
2018-05-03T14:07:09.726Z,50.75
2018-05-03T14:08:18.268Z,50.65
2018-05-03T14:09:27.192Z,51.64
2018-05-03T14:10:35.838Z,51.16
2018-05-03T14:11:44.491Z,51.06
2018-05-03T14:12:53.199Z,52.4
2018-05-03T14:14:02.115Z,50.9
2018-05-03T14:15:11.039Z,50.23
2018-05-03T14:16:19.683Z,48.69
2018-05-03T14:17:28.322Z,48.79
2018-05-03T14:18:36.981Z,48.95
2018-05-03T14:19:45.633Z,50.1
2018-05-03T14:20:54.352Z,52.12
2018-05-03T14:22:03.201Z,53.36
2018-05-03T14:23:11.851Z,54.42
2018-05-03T14:24:20.504Z,53.85
2018-05-03T14:25:29.158Z,52.02
2018-05-03T14:26:37.808Z,49.33
2018-05-03T14:27:46.448Z,49.72
2018-05-03T14:28:55.100Z,49.15
2018-05-03T14:30:04.024Z,48.85
2018-05-03T14:31:12.687Z,48.38
2018-05-03T14:32:21.321Z,48.76
2018-05-03T14:33:29.974Z,48.18
2018-05-03T14:34:38.618Z,49.52
2018-05-03T14:35:47.281Z,49.91
2018-05-03T14:36:55.922Z,50.49
2018-05-03T14:38:04.573Z,51.83
2018-05-03T14:39:13.221Z,51.04
2018-05-03T14:40:21.881Z,53.05
2018-05-03T14:41:30.532Z,51.71
2018-05-03T14:42:39.176Z,52.67
2018-05-03T14:43:47.826Z,51.32
2018-05-03T14:44:56.740Z,51.14
2018-05-03T14:46:05.394Z,51.9
2018-05-03T14:47:14.054Z,52